Time;durP1;ratioP1;P1;durP2;ratioP2;P2;SDS_P1;SDS_P2;PMS_P1;PMS_P2;Temp;Humidity;BMP_temperature;BMP_pressure;BME280_temperature;BME280_humidity;BME280_pressure;Samples;Min_cycle;Max_cycle;Signal;HPM_P1;HPM_P2
2022/04/19 00:00:51;;;;;;;8.25;6.18;;;11.40;54.20;;;;;;5033087;28;20037;-67
2022/04/19 00:03:17;;;;;;;10.68;6.30;;;11.40;54.20;;;;;;5033454;28;20411;-67
2022/04/19 00:05:43;;;;;;;10.00;6.78;;;11.40;54.30;;;;;;5033362;28;20107;-67
2022/04/19 00:08:11;;;;;;;12.07;6.65;;;11.40;54.40;;;;;;5033411;28;20052;-67
2022/04/19 00:10:37;;;;;;;9.90;7.03;;;11.30;54.70;;;;;;5032884;28;20499;-67
2022/04/19 00:13:05;;;;;;;8.70;6.97;;;11.30;54.70;;;;;;5033073;28;20033;-67
2022/04/19 00:15:32;;;;;;;9.15;6.55;;;11.30;54.70;;;;;;5033075;28;20046;-67
2022/04/19 00:17:59;;;;;;;12.60;7.55;;;11.30;54.70;;;;;;5033219;28;20037;-68
2022/04/19 00:20:25;;;;;;;9.63;6.38;;;11.20;55.00;;;;;;5032944;28;20411;-68
2022/04/19 00:22:52;;;;;;;10.05;6.63;;;11.20;55.10;;;;;;5032906;28;20045;-67
2022/04/19 00:25:18;;;;;;;11.75;7.50;;;11.20;55.20;;;;;;5032936;28;20041;-67
2022/04/19 00:27:44;;;;;;;9.88;7.18;;;11.20;55.30;;;;;;5031612;28;20077;-68
2022/04/19 00:30:10;;;;;;;13.18;7.25;;;11.20;55.60;;;;;;5032568;28;20452;-67
2022/04/19 00:32:37;;;;;;;11.15;7.13;;;11.20;55.70;;;;;;5031571;28;20408;-67
2022/04/19 00:35:07;;;;;;;11.20;6.90;;;11.10;56.10;;;;;;5031478;28;20407;-67
2022/04/19 00:37:34;;;;;;;11.57;6.90;;;11.10;56.10;;;;;;5032965;28;20148;-67
2022/04/19 00:40:04;;;;;;;11.57;7.07;;;11.20;56.30;;;;;;5032309;28;20511;-67
2022/04/19 00:42:30;;;;;;;9.88;7.03;;;11.10;56.40;;;;;;5031414;28;20045;-67
2022/04/19 00:44:58;;;;;;;13.73;7.40;;;11.00;56.50;;;;;;5032516;28;20052;-67
2022/04/19 00:47:24;;;;;;;11.65;6.82;;;11.00;56.60;;;;;;5032693;28;20037;-67
2022/04/19 00:49:50;;;;;;;12.85;7.63;;;11.00;57.10;;;;;;5031409;28;20403;-67
2022/04/19 00:52:17;;;;;;;11.43;7.43;;;11.00;57.80;;;;;;5032128;28;20076;-67
2022/04/19 00:54:43;;;;;;;10.27;6.85;;;11.00;58.30;;;;;;5032406;28;20080;-67
2022/04/19 00:57:10;;;;;;;10.90;7.00;;;10.90;59.00;;;;;;5032391;28;20116;-68
2022/04/19 00:59:36;;;;;;;10.52;7.28;;;10.90;59.20;;;;;;5032549;28;20045;-67
2022/04/19 01:02:03;;;;;;;10.57;6.57;;;10.80;59.60;;;;;;5031951;28;20041;-67
2022/04/19 01:04:29;;;;;;;9.88;7.13;;;10.80;61.90;;;;;;5032237;28;20083;-67
2022/04/19 01:06:56;;;;;;;10.65;6.80;;;10.80;62.40;;;;;;5031234;28;20384;-67
2022/04/19 01:09:22;;;;;;;10.07;7.25;;;10.70;62.30;;;;;;5032145;28;20046;-67
2022/04/19 01:14:36;;;;;;;10.52;7.03;;;10.60;61.40;;;;;;5032294;28;20053;-67
2022/04/19 01:17:02;;;;;;;9.48;6.95;;;10.60;62.00;;;;;;5032165;28;20056;-67
2022/04/19 01:19:28;;;;;;;10.93;7.45;;;10.50;62.10;;;;;;5032110;28;20041;-67
2022/04/19 01:21:54;;;;;;;13.60;7.57;;;10.60;62.40;;;;;;5031621;28;20120;-67
2022/04/19 01:24:22;;;;;;;9.50;6.53;;;10.60;62.10;;;;;;5031863;28;20621;-67
2022/04/19 01:26:51;;;;;;;11.75;7.15;;;10.60;62.00;;;;;;5031920;28;20037;-67
2022/04/19 01:29:17;;;;;;;10.10;7.53;;;10.60;62.50;;;;;;5031988;28;20029;-67
2022/04/19 01:31:43;;;;;;;9.65;6.78;;;10.50;64.00;;;;;;5031563;28;20033;-67
2022/04/19 01:34:09;;;;;;;12.80;7.53;;;10.50;65.80;;;;;;5031757;28;20095;-67
2022/04/19 01:36:38;;;;;;;14.48;7.95;;;10.50;65.90;;;;;;5031777;28;20458;-67
2022/04/19 01:39:11;;;;;;;10.45;7.38;;;10.40;65.90;;;;;;5031714;28;20037;-67
2022/04/19 01:41:38;;;;;;;11.63;7.47;;;10.40;68.70;;;;;;5031588;28;20423;-67
2022/04/19 01:44:05;;;;;;;10.85;7.85;;;10.30;69.50;;;;;;5031828;28;20049;-67
2022/04/19 01:46:31;;;;;;;11.05;7.15;;;10.30;72.00;;;;;;5031518;28;20526;-67
2022/04/19 01:48:57;;;;;;;12.25;7.80;;;10.20;73.70;;;;;;5031680;28;20045;-67
2022/04/19 01:51:24;;;;;;;9.90;7.07;;;10.20;74.70;;;;;;5031195;28;20040;-67
2022/04/19 01:53:50;;;;;;;10.80;8.02;;;10.10;75.90;;;;;;5031497;28;20522;-67
2022/04/19 01:56:15;;;;;;;11.52;7.53;;;10.10;74.40;;;;;;5031724;28;20034;-67
2022/04/19 01:58:41;;;;;;;14.18;8.38;;;10.10;74.20;;;;;;5031640;28;20566;-67
2022/04/19 02:01:07;;;;;;;16.00;7.90;;;10.00;73.40;;;;;;5031265;28;20037;-67
2022/04/19 02:03:34;;;;;;;10.70;7.03;;;10.00;73.60;;;;;;5031514;28;20037;-67
2022/04/19 02:06:00;;;;;;;15.32;8.10;;;10.00;73.70;;;;;;5031438;28;20048;-67
2022/04/19 02:08:27;;;;;;;11.95;7.85;;;10.00;74.00;;;;;;5031714;28;20096;-67
2022/04/19 02:10:52;;;;;;;14.02;8.27;;;9.90;74.00;;;;;;5031297;28;20041;-67
2022/04/19 02:13:19;;;;;;;12.02;8.35;;;10.00;74.80;;;;;;5031416;28;20057;-67
2022/04/19 02:15:46;;;;;;;11.77;7.43;;;9.90;75.30;;;;;;5031408;28;20042;-67
2022/04/19 02:18:12;;;;;;;11.15;7.55;;;9.80;75.70;;;;;;5030003;28;20191;-67
2022/04/19 02:20:38;;;;;;;11.25;7.93;;;9.80;76.30;;;;;;5033639;28;20033;-67
2022/04/19 02:23:03;;;;;;;11.27;7.47;;;9.90;76.70;;;;;;5035164;28;20041;-67
2022/04/19 02:25:29;;;;;;;11.13;7.47;;;9.80;78.10;;;;;;5035387;28;20037;-67
2022/04/19 02:27:55;;;;;;;11.80;7.35;;;9.80;78.10;;;;;;5035278;28;20448;-67
2022/04/19 02:30:21;;;;;;;12.05;8.10;;;9.70;78.90;;;;;;5034818;28;20030;-67
2022/04/19 02:32:50;;;;;;;11.38;7.72;;;9.70;79.80;;;;;;5034920;28;20041;-67
2022/04/19 02:35:20;;;;;;;11.88;7.80;;;9.60;79.90;;;;;;5035106;28;20038;-67
2022/04/19 02:37:54;;;;;;;13.07;7.78;;;9.60;81.40;;;;;;5035156;28;20033;-67
2022/04/19 02:40:21;;;;;;;12.40;8.15;;;9.60;82.30;;;;;;5034909;28;20041;-67
2022/04/19 02:42:49;;;;;;;13.30;7.72;;;9.60;82.40;;;;;;5033822;28;20049;-67
2022/04/19 02:45:14;;;;;;;11.48;7.63;;;9.50;82.70;;;;;;5034853;28;20037;-67
2022/04/19 02:47:43;;;;;;;13.23;8.02;;;9.60;83.90;;;;;;5034738;28;20037;-67
2022/04/19 02:50:09;;;;;;;11.98;8.02;;;9.50;85.50;;;;;;5034614;28;20418;-67
2022/04/19 02:52:34;;;;;;;13.02;7.50;;;9.50;87.20;;;;;;5034736;28;20045;-67
2022/04/19 02:55:00;;;;;;;13.05;8.95;;;9.50;86.60;;;;;;5034911;28;20041;-67
2022/04/19 02:57:26;;;;;;;10.38;7.93;;;9.40;86.50;;;;;;5034693;28;20041;-67
2022/04/19 02:59:53;;;;;;;13.05;8.55;;;9.40;87.90;;;;;;5034501;28;20043;-67
2022/04/19 03:02:19;;;;;;;11.85;7.50;;;9.30;90.00;;;;;;5034169;28;20098;-67
2022/04/19 03:04:44;;;;;;;12.93;7.90;;;9.30;90.00;;;;;;5034592;28;20538;-67
2022/04/19 03:07:13;;;;;;;13.70;7.70;;;9.30;90.00;;;;;;5034575;28;20045;-67
2022/04/19 03:09:40;;;;;;;12.40;7.95;;;9.30;90.80;;;;;;5032545;28;20509;-67
2022/04/19 03:12:06;;;;;;;12.45;7.35;;;9.30;90.90;;;;;;5033687;28;20503;-67
2022/04/19 03:14:32;;;;;;;9.50;7.57;;;9.20;91.60;;;;;;5025940;28;20048;-67
2022/04/19 03:16:57;;;;;;;9.95;7.22;;;9.10;92.10;;;;;;5034168;28;20053;-67
2022/04/19 03:19:24;;;;;;;12.88;7.90;;;9.10;92.30;;;;;;5032944;28;20052;-67
2022/04/19 03:21:49;;;;;;;14.98;7.85;;;9.20;92.50;;;;;;5033724;28;20068;-67
2022/04/19 03:29:43;;;;;;;11.65;7.60;;;9.10;93.10;;;;;;5025950;28;20045;-67
2022/04/19 03:32:09;;;;;;;13.30;8.05;;;9.00;93.70;;;;;;5032339;28;20124;-67
2022/04/19 03:34:35;;;;;;;11.95;8.18;;;9.00;94.00;;;;;;5032708;28;20037;-67
2022/04/19 03:37:01;;;;;;;10.90;7.60;;;9.00;94.10;;;;;;5033980;28;20083;-67
2022/04/19 03:39:26;;;;;;;9.65;6.90;;;9.00;94.50;;;;;;5032825;28;20041;-67
2022/04/19 03:41:52;;;;;;;11.45;7.30;;;8.90;94.80;;;;;;5032050;28;20079;-67
2022/04/19 03:44:18;;;;;;;12.45;7.20;;;8.90;96.00;;;;;;5032753;28;20053;-68
2022/04/19 03:49:27;;;;;;;12.23;8.18;;;8.90;95.70;;;;;;5033839;28;20052;-68
2022/04/19 03:51:53;;;;;;;13.18;7.95;;;8.80;96.20;;;;;;5024955;28;20046;-68
2022/04/19 03:54:18;;;;;;;12.02;7.75;;;8.80;96.40;;;;;;5033450;28;20502;-68
2022/04/19 03:56:44;;;;;;;13.50;8.10;;;8.80;97.10;;;;;;5033791;28;20506;-67
2022/04/19 03:59:10;;;;;;;12.27;8.07;;;8.70;97.20;;;;;;5033654;28;20096;-68
2022/04/19 04:01:39;;;;;;;15.00;8.88;;;8.70;97.40;;;;;;5033266;28;20037;-68
2022/04/19 04:04:06;;;;;;;11.38;8.00;;;8.70;97.90;;;;;;5032345;28;20122;-68
2022/04/19 04:06:35;;;;;;;14.38;8.13;;;8.70;98.00;;;;;;5033417;28;20529;-68
2022/04/19 04:09:02;;;;;;;10.88;7.55;;;8.70;97.90;;;;;;5032034;28;20059;-67
2022/04/19 04:11:28;;;;;;;11.52;7.68;;;8.70;98.00;;;;;;5032855;28;20045;-68
2022/04/19 04:13:53;;;;;;;13.05;7.78;;;8.70;98.20;;;;;;5033098;28;20115;-68
2022/04/19 04:16:19;;;;;;;13.95;7.97;;;8.70;98.50;;;;;;5033352;28;20038;-67
2022/04/19 04:18:44;;;;;;;12.10;8.10;;;8.70;98.50;;;;;;5032381;28;20558;-68
2022/04/19 04:21:10;;;;;;;11.95;8.05;;;8.70;98.50;;;;;;5032929;28;20076;-67
2022/04/19 04:23:35;;;;;;;12.73;8.50;;;8.70;98.50;;;;;;5032947;28;20164;-67
2022/04/19 04:26:01;;;;;;;12.93;8.35;;;8.70;98.90;;;;;;5033300;28;20403;-68
2022/04/19 04:28:27;;;;;;;15.05;8.65;;;8.70;98.80;;;;;;5033308;28;20083;-67
2022/04/19 04:30:52;;;;;;;10.57;7.32;;;8.60;99.10;;;;;;5032920;28;20072;-67
2022/04/19 04:33:18;;;;;;;13.43;8.52;;;8.60;99.30;;;;;;5033215;28;20513;-67
2022/04/19 04:35:44;;;;;;;14.30;8.50;;;8.60;99.70;;;;;;5032848;28;20057;-67
2022/04/19 04:38:09;;;;;;;11.70;8.45;;;8.50;99.60;;;;;;5032605;28;20037;-67
2022/04/19 04:40:35;;;;;;;11.02;8.07;;;8.60;99.90;;;;;;5032381;28;20479;-67
2022/04/19 04:43:00;;;;;;;13.55;8.20;;;8.50;99.90;;;;;;5028499;28;20045;-67
2022/04/19 04:45:26;;;;;;;13.80;8.35;;;8.50;99.90;;;;;;5026948;28;20045;-67
2022/04/19 04:49:35;;;;;;;13.15;8.30;;;8.50;99.90;;;;;;5032647;28;20042;-67
2022/04/19 04:50:37;;;;;;;14.40;9.07;;;8.50;99.90;;;;;;5031958;28;20046;-67
2022/04/19 04:53:03;;;;;;;13.60;9.05;;;8.40;99.90;;;;;;5032537;28;20033;-67
2022/04/19 04:55:29;;;;;;;15.43;8.75;;;8.40;99.90;;;;;;5032443;28;20067;-67
2022/04/19 04:57:58;;;;;;;15.13;8.57;;;8.40;99.90;;;;;;5032363;28;20045;-67
2022/04/19 05:00:25;;;;;;;18.30;9.85;;;8.40;99.90;;;;;;5032000;28;20436;-67
2022/04/19 05:02:51;;;;;;;15.05;8.85;;;8.40;99.90;;;;;;5032212;28;20562;-67
2022/04/19 05:05:16;;;;;;;14.35;9.10;;;8.50;99.90;;;;;;5032197;28;20128;-67
2022/04/19 05:07:42;;;;;;;14.30;9.57;;;8.60;99.90;;;;;;5032303;28;20034;-67
2022/04/19 05:10:08;;;;;;;17.63;10.27;;;8.70;99.90;;;;;;5032035;28;20037;-67
2022/04/19 05:12:34;;;;;;;13.80;9.65;;;8.90;99.90;;;;;;5031975;28;20526;-67
2022/04/19 05:15:00;;;;;;;12.65;8.63;;;9.00;99.80;;;;;;5030871;28;20033;-69
2022/04/19 05:17:26;;;;;;;16.05;8.93;;;9.20;99.60;;;;;;5032132;28;20034;-68
2022/04/19 05:19:56;;;;;;;14.00;8.43;;;9.30;99.50;;;;;;5031911;28;20487;-67
2022/04/19 05:22:22;;;;;;;13.90;8.48;;;9.40;98.90;;;;;;5032147;28;20034;-68
2022/04/19 05:24:48;;;;;;;14.70;8.88;;;9.50;98.20;;;;;;5030679;28;20048;-68
2022/04/19 05:27:13;;;;;;;13.57;8.88;;;9.60;97.40;;;;;;5032093;28;20037;-68
2022/04/19 05:29:39;;;;;;;13.25;8.60;;;9.70;96.70;;;;;;5031964;28;20395;-67
2022/04/19 05:32:05;;;;;;;13.85;7.80;;;9.90;96.10;;;;;;5031464;28;20455;-68
2022/04/19 05:34:31;;;;;;;12.43;8.35;;;10.00;95.30;;;;;;5030516;28;20049;-68
2022/04/19 05:36:56;;;;;;;13.20;8.77;;;10.10;94.60;;;;;;5032000;28;20042;-68
2022/04/19 05:39:22;;;;;;;10.07;7.57;;;10.30;93.50;;;;;;5030809;28;20124;-68
2022/04/19 05:41:48;;;;;;;14.95;8.05;;;10.50;92.70;;;;;;5031493;28;20044;-68
2022/04/19 05:44:13;;;;;;;14.10;8.77;;;10.50;91.90;;;;;;5031830;28;20052;-68
2022/04/19 05:46:39;;;;;;;15.57;8.07;;;10.60;91.20;;;;;;5031717;28;20045;-68
2022/04/19 05:49:05;;;;;;;12.80;8.70;;;10.70;91.00;;;;;;5031494;28;20040;-68
2022/04/19 05:51:33;;;;;;;14.93;7.85;;;10.80;90.60;;;;;;5031578;28;20045;-67
2022/04/19 05:53:59;;;;;;;14.70;9.82;;;11.00;90.00;;;;;;5031445;28;20450;-68
2022/04/19 05:56:25;;;;;;;16.67;9.20;;;11.10;88.20;;;;;;5035790;28;20454;-68
2022/04/19 05:58:50;;;;;;;14.82;9.57;;;11.20;87.60;;;;;;5035685;28;20039;-68
2022/04/19 06:01:16;;;;;;;15.18;9.65;;;11.30;86.70;;;;;;5035424;28;20038;-68
2022/04/19 06:06:26;;;;;;;17.35;8.98;;;11.40;85.00;;;;;;5034321;28;20049;-68
2022/04/19 06:08:53;;;;;;;15.15;9.10;;;11.60;83.70;;;;;;5035477;28;20038;-68
2022/04/19 06:11:19;;;;;;;13.70;8.77;;;11.60;83.50;;;;;;5033833;28;20091;-68
2022/04/19 06:13:45;;;;;;;11.55;7.78;;;11.60;83.40;;;;;;5035362;28;20446;-68
2022/04/19 06:16:10;;;;;;;15.60;8.45;;;11.90;81.30;;;;;;5035286;28;20543;-68
2022/04/19 06:18:37;;;;;;;17.00;10.30;;;11.90;80.90;;;;;;5035513;28;20045;-68
2022/04/19 06:21:04;;;;;;;14.85;8.73;;;12.20;79.90;;;;;;5035187;28;20049;-68
2022/04/19 06:23:34;;;;;;;14.15;9.40;;;12.40;78.00;;;;;;5034047;28;20459;-67
2022/04/19 06:26:00;;;;;;;11.90;8.05;;;12.60;77.20;;;;;;5034613;28;20037;-68
2022/04/19 06:28:26;;;;;;;13.27;8.82;;;12.60;76.20;;;;;;5035105;28;20064;-68
2022/04/19 06:30:52;;;;;;;10.95;7.47;;;12.80;74.80;;;;;;5034974;28;20171;-68
2022/04/19 06:33:17;;;;;;;14.05;7.60;;;12.90;74.20;;;;;;5034906;28;20574;-68
2022/04/19 06:35:43;;;;;;;9.85;6.25;;;13.10;72.80;;;;;;5034931;28;20132;-68
2022/04/19 06:38:09;;;;;;;12.45;7.32;;;13.40;72.10;;;;;;5034895;28;20037;-68
2022/04/19 06:40:35;;;;;;;10.07;6.65;;;13.50;70.30;;;;;;5034758;28;20045;-69
2022/04/19 06:43:00;;;;;;;13.10;6.82;;;13.60;69.70;;;;;;5034797;28;20038;-69
2022/04/19 06:45:26;;;;;;;10.80;6.60;;;13.80;69.50;;;;;;5035104;28;20118;-69
2022/04/19 06:48:03;;;;;;;11.23;7.55;;;14.00;69.00;;;;;;5035016;28;20506;-69
2022/04/19 06:50:28;;;;;;;16.33;7.57;;;14.20;66.90;;;;;;5034662;28;20049;-68
2022/04/19 06:52:54;;;;;;;9.57;6.15;;;14.10;67.00;;;;;;5034170;28;20053;-69
2022/04/19 06:55:20;;;;;;;9.80;6.53;;;14.40;66.20;;;;;;5034374;28;20511;-69
2022/04/19 06:57:47;;;;;;;10.18;6.40;;;14.60;64.90;;;;;;5034474;28;20072;-69
2022/04/19 07:00:15;;;;;;;11.60;6.47;;;14.70;64.30;;;;;;5034465;28;20048;-68
2022/04/19 07:02:40;;;;;;;13.57;6.90;;;14.70;63.70;;;;;;5034468;28;20068;-68
2022/04/19 07:05:06;;;;;;;14.95;7.90;;;14.50;63.90;;;;;;5034176;28;20045;-68
2022/04/19 07:07:33;;;;;;;11.70;7.45;;;14.70;63.60;;;;;;5034278;28;20184;-69
2022/04/19 07:09:59;;;;;;;13.73;7.18;;;14.70;63.20;;;;;;5032548;28;20049;-69
2022/04/19 07:12:24;;;;;;;11.00;7.70;;;14.50;63.90;;;;;;5033353;28;20048;-69
2022/04/19 07:14:50;;;;;;;10.77;6.93;;;14.40;63.90;;;;;;5034474;28;20034;-68
2022/04/19 07:17:16;;;;;;;12.13;7.50;;;14.50;64.60;;;;;;5033245;28;20049;-69
2022/04/19 07:28:03;;;;;;;9.70;5.80;;;15.20;62.40;;;;;;5034239;28;20049;-68
2022/04/19 07:30:29;;;;;;;9.85;6.07;;;15.20;59.20;;;;;;5033844;28;20033;-71
2022/04/19 07:33:00;;;;;;;7.28;4.55;;;15.20;57.70;;;;;;5033920;28;20041;-71
2022/04/19 07:35:25;;;;;;;10.05;5.90;;;15.00;57.40;;;;;;5034258;28;20041;-71
2022/04/19 07:37:51;;;;;;;8.75;5.13;;;14.80;57.50;;;;;;5033880;28;20041;-71
2022/04/19 07:40:17;;;;;;;6.90;5.30;;;14.80;56.80;;;;;;5033817;28;20044;-72
2022/04/19 07:42:42;;;;;;;6.75;4.85;;;14.90;57.20;;;;;;5033873;28;20041;-71
2022/04/19 07:45:09;;;;;;;6.05;4.60;;;14.90;57.00;;;;;;5032471;28;20054;-71
2022/04/19 07:47:34;;;;;;;7.40;5.00;;;15.00;56.90;;;;;;5032549;28;20069;-72
2022/04/19 07:50:01;;;;;;;7.63;5.60;;;15.30;57.40;;;;;;5033457;28;20079;-71
2022/04/19 07:52:26;;;;;;;6.43;4.78;;;15.50;55.50;;;;;;5033649;28;20041;-71
2022/04/19 07:54:52;;;;;;;7.88;4.65;;;15.60;54.80;;;;;;5032285;28;20038;-72
2022/04/19 07:57:21;;;;;;;6.97;4.55;;;15.50;53.70;;;;;;5033440;28;20073;-72
2022/04/19 07:59:51;;;;;;;6.22;3.88;;;15.70;53.70;;;;;;5032398;28;20139;-71
2022/04/19 08:02:17;;;;;;;6.03;3.88;;;15.80;52.90;;;;;;5032991;28;20045;-71
2022/04/19 08:04:42;;;;;;;5.75;3.47;;;15.90;52.40;;;;;;5032092;28;20048;-71
2022/04/19 08:07:08;;;;;;;4.70;3.58;;;15.90;51.60;;;;;;5033341;28;20039;-72
2022/04/19 08:09:33;;;;;;;4.70;2.90;;;15.70;50.30;;;;;;5031798;28;20029;-71
2022/04/19 08:11:59;;;;;;;4.90;3.10;;;15.50;49.90;;;;;;5032546;28;20045;-72
2022/04/19 08:14:24;;;;;;;6.55;3.60;;;15.90;49.80;;;;;;5031483;28;20037;-72
2022/04/19 08:16:50;;;;;;;5.38;2.92;;;16.00;49.30;;;;;;5032609;28;20052;-72
2022/04/19 08:19:16;;;;;;;5.10;2.30;;;15.90;48.40;;;;;;5031751;28;20305;-72
2022/04/19 08:21:42;;;;;;;5.85;2.30;;;15.90;46.00;;;;;;5032364;28;20098;-72
2022/04/19 08:24:07;;;;;;;3.40;2.10;;;15.90;45.70;;;;;;5033033;28;20041;-72
2022/04/19 08:26:33;;;;;;;6.00;2.30;;;16.00;43.90;;;;;;5032601;28;20597;-71
2022/04/19 08:28:58;;;;;;;4.00;2.33;;;16.10;43.90;;;;;;5032541;28;20038;-72
2022/04/19 08:31:24;;;;;;;3.65;2.40;;;16.40;44.70;;;;;;5031264;28;20103;-72
2022/04/19 08:33:50;;;;;;;1.85;1.40;;;16.40;43.90;;;;;;5033015;28;20094;-72
2022/04/19 08:36:15;;;;;;;7.32;1.50;;;16.40;42.10;;;;;;5031736;28;20123;-72
2022/04/19 08:38:41;;;;;;;3.63;1.58;;;16.30;40.80;;;;;;5032746;28;20130;-72
2022/04/19 08:41:07;;;;;;;2.60;1.70;;;16.30;41.20;;;;;;5031036;28;20069;-72
2022/04/19 08:43:33;;;;;;;2.53;1.60;;;16.20;41.60;;;;;;5031521;28;20458;-72
2022/04/19 08:46:00;;;;;;;2.10;1.70;;;16.30;42.00;;;;;;5032525;28;20041;-72
2022/04/19 08:48:26;;;;;;;7.50;1.88;;;16.30;42.20;;;;;;5031160;28;20089;-72
2022/04/19 08:50:54;;;;;;;2.35;1.63;;;16.30;42.70;;;;;;5030558;28;20522;-72
2022/04/19 08:58:49;;;;;;;6.07;2.13;;;16.50;43.60;;;;;;5032567;28;20069;-72
2022/04/19 09:01:15;;;;;;;4.82;2.03;;;16.50;43.50;;;;;;5031095;28;20072;-72
2022/04/19 09:03:41;;;;;;;5.43;2.35;;;16.60;43.80;;;;;;5032427;28;20559;-71
2022/04/19 09:06:07;;;;;;;3.78;2.03;;;16.60;44.00;;;;;;5032372;28;20050;-71
2022/04/19 09:08:32;;;;;;;3.35;2.03;;;16.50;44.20;;;;;;5031008;28;20450;-71
2022/04/19 09:11:08;;;;;;;4.93;2.10;;;16.50;44.70;;;;;;5031837;28;20043;-71
2022/04/19 09:13:35;;;;;;;4.40;2.67;;;16.60;45.10;;;;;;5032210;28;20042;-71
2022/04/19 09:16:07;;;;;;;4.20;2.40;;;16.60;44.90;;;;;;5032221;28;20037;-71
2022/04/19 09:18:36;;;;;;;3.50;2.25;;;16.50;44.10;;;;;;5032246;28;20081;-71
2022/04/19 09:21:04;;;;;;;2.45;2.08;;;16.60;44.30;;;;;;5030246;28;20499;-71
2022/04/19 09:23:31;;;;;;;4.47;2.03;;;16.60;44.70;;;;;;5031663;28;20099;-71
2022/04/19 09:26:05;;;;;;;4.15;2.53;;;16.50;44.40;;;;;;5032052;28;20037;-71
2022/04/19 09:28:33;;;;;;;3.70;2.13;;;16.40;44.80;;;;;;5030753;28;20037;-71
2022/04/19 09:31:00;;;;;;;4.40;2.88;;;16.30;44.90;;;;;;5031839;28;20038;-71
2022/04/19 09:33:30;;;;;;;6.82;2.28;;;16.30;44.40;;;;;;5031827;28;20171;-71
2022/04/19 09:36:02;;;;;;;3.05;2.50;;;16.40;44.70;;;;;;5030482;28;20507;-71
2022/04/19 09:38:38;;;;;;;4.87;2.70;;;16.50;45.40;;;;;;5030547;28;20514;-71
2022/04/19 09:41:06;;;;;;;3.70;2.00;;;16.50;45.30;;;;;;5030246;28;20315;-71
2022/04/19 09:43:35;;;;;;;5.53;2.53;;;16.40;45.10;;;;;;5031925;28;20041;-71
2022/04/19 09:46:05;;;;;;;4.90;2.35;;;16.30;45.20;;;;;;5030434;28;20045;-71
2022/04/19 09:48:32;;;;;;;4.03;2.40;;;16.20;45.30;;;;;;5031562;28;20519;-71
2022/04/19 09:51:07;;;;;;;4.30;2.20;;;16.30;45.70;;;;;;5031551;28;20037;-71
2022/04/19 09:53:44;;;;;;;3.10;1.92;;;16.40;44.80;;;;;;5031651;28;20411;-71
2022/04/19 09:56:15;;;;;;;9.13;2.40;;;16.30;44.80;;;;;;5031659;28;20394;-71
2022/04/19 09:58:42;;;;;;;4.78;2.33;;;16.20;45.10;;;;;;5030324;28;20044;-71
2022/04/19 10:08:10;;;;;;;3.03;1.98;;;16.10;45.10;;;;;;5031204;28;20109;-71
2022/04/19 10:09:24;;;;;;;4.55;2.40;;;16.30;45.80;;;;;;5031382;28;20089;-71
2022/04/19 10:11:51;;;;;;;3.70;2.50;;;16.30;45.90;;;;;;5031092;28;20041;-71
2022/04/19 10:14:18;;;;;;;4.93;3.00;;;16.20;45.10;;;;;;5030200;28;20081;-71
2022/04/19 10:16:44;;;;;;;3.85;2.28;;;16.10;45.40;;;;;;5031577;28;20042;-71
2022/04/19 10:19:10;;;;;;;5.25;1.85;;;16.00;45.40;;;;;;5030092;28;20038;-71
2022/04/19 10:21:41;;;;;;;4.30;2.47;;;16.00;45.70;;;;;;5013328;28;20414;-71
2022/04/19 10:24:17;;;;;;;3.53;1.92;;;16.00;45.80;;;;;;5030342;28;20410;-71
2022/04/19 10:26:47;;;;;;;3.20;2.38;;;16.10;45.30;;;;;;5030337;28;20076;-71
2022/04/19 10:29:17;;;;;;;4.38;2.20;;;16.00;45.70;;;;;;5013600;28;20049;-70
2022/04/19 10:32:04;;;;;;;3.70;2.13;;;16.00;45.80;;;;;;5031601;28;20033;-71
2022/04/19 10:34:33;;;;;;;3.78;2.45;;;16.00;45.90;;;;;;5030268;28;20041;-71
2022/04/19 10:37:21;;;;;;;4.13;2.67;;;16.00;45.80;;;;;;5031510;28;20037;-71
2022/04/19 10:39:51;;;;;;;4.63;2.38;;;16.00;45.70;;;;;;5031527;28;20250;-71
2022/04/19 10:42:26;;;;;;;3.42;2.55;;;16.00;46.70;;;;;;5033672;28;20045;-71
2022/04/19 10:44:52;;;;;;;3.75;2.65;;;16.10;47.00;;;;;;5035051;28;20496;-71
2022/04/19 10:47:26;;;;;;;5.68;3.08;;;16.20;46.80;;;;;;5034011;28;20435;-71
2022/04/19 10:50:03;;;;;;;4.18;3.28;;;16.30;46.20;;;;;;5035004;28;20037;-71
2022/04/19 10:52:39;;;;;;;4.15;2.42;;;16.30;46.80;;;;;;5034895;28;20037;-71
2022/04/19 10:55:07;;;;;;;4.28;2.63;;;16.30;46.70;;;;;;5033684;28;20431;-71
2022/04/19 10:58:13;;;;;;;6.47;3.13;;;16.20;46.60;;;;;;5034964;28;20033;-71
2022/04/19 11:00:41;;;;;;;5.20;3.20;;;16.20;46.40;;;;;;5031412;28;20259;-71
2022/04/19 11:03:11;;;;;;;5.13;3.00;;;16.20;46.70;;;;;;5033110;28;20045;-68
2022/04/19 11:05:50;;;;;;;4.25;2.50;;;16.40;46.70;;;;;;5034189;28;20071;-67
2022/04/19 11:08:25;;;;;;;4.65;2.58;;;16.70;45.90;;;;;;5030339;28;20046;-67
2022/04/19 11:11:02;;;;;;;3.90;2.60;;;16.80;45.10;;;;;;5034161;28;20071;-67
2022/04/19 11:13:39;;;;;;;4.68;2.38;;;16.70;45.30;;;;;;5034352;28;20048;-67
2022/04/19 11:16:05;;;;;;;3.78;1.80;;;16.80;45.20;;;;;;5034237;28;20044;-67
2022/04/19 11:18:32;;;;;;;5.13;2.20;;;16.80;44.50;;;;;;5034495;28;20041;-67
2022/04/19 11:21:00;;;;;;;4.13;2.22;;;16.90;44.70;;;;;;5033999;28;20530;-67
2022/04/19 11:23:27;;;;;;;4.43;2.60;;;16.80;44.70;;;;;;5034178;28;20403;-67
2022/04/19 11:25:54;;;;;;;2.70;2.08;;;16.80;44.40;;;;;;5033878;28;20071;-67
2022/04/19 11:28:21;;;;;;;6.03;2.08;;;16.90;43.60;;;;;;5033714;28;20053;-68
2022/04/19 11:30:50;;;;;;;6.80;2.22;;;16.80;44.50;;;;;;5033344;28;20524;-67
2022/04/19 11:33:28;;;;;;;5.25;2.53;;;16.70;44.60;;;;;;5033991;28;20037;-67
2022/04/19 11:36:03;;;;;;;4.45;2.70;;;16.90;44.70;;;;;;5034024;28;20061;-67
2022/04/19 11:38:30;;;;;;;3.70;2.15;;;16.80;43.80;;;;;;5033991;28;20040;-67
2022/04/19 11:46:45;;;;;;;3.38;2.53;;;16.90;44.20;;;;;;5012243;28;20053;-68
2022/04/19 11:49:19;;;;;;;5.63;2.78;;;16.90;44.50;;;;;;5033439;28;20095;-68
2022/04/19 11:52:09;;;;;;;5.20;2.40;;;16.80;44.10;;;;;;5032454;28;20046;-68
2022/04/19 11:54:35;;;;;;;3.25;2.00;;;16.90;45.30;;;;;;5032292;28;20045;-70
2022/04/19 11:57:06;;;;;;;3.25;2.00;;;16.80;44.80;;;;;;5033514;28;20037;-70
2022/04/19 11:59:37;;;;;;;5.40;2.20;;;16.70;44.60;;;;;;5033460;28;20112;-70
2022/04/19 12:02:10;;;;;;;3.60;2.40;;;16.70;44.80;;;;;;5033320;28;20034;-70
2022/04/19 12:04:36;;;;;;;3.90;2.35;;;16.80;44.70;;;;;;5033452;28;20530;-70
2022/04/19 12:07:02;;;;;;;4.80;2.20;;;16.50;44.80;;;;;;5032308;28;20053;-70
2022/04/19 12:09:30;;;;;;;7.80;2.88;;;16.60;45.50;;;;;;5031952;28;20071;-70
2022/04/19 12:11:56;;;;;;;6.22;3.08;;;16.60;46.30;;;;;;5031820;28;20041;-70
2022/04/19 12:14:32;;;;;;;5.22;2.92;;;16.70;46.40;;;;;;5033022;28;20043;-70
2022/04/19 12:17:03;;;;;;;5.30;2.88;;;16.70;46.60;;;;;;5032202;28;20047;-70
2022/04/19 12:19:34;;;;;;;6.40;2.60;;;16.70;46.50;;;;;;5033317;28;20041;-70
2022/04/19 12:22:00;;;;;;;2.85;1.83;;;16.70;47.00;;;;;;5031495;28;20049;-71
2022/04/19 12:24:31;;;;;;;2.95;2.50;;;16.80;46.00;;;;;;5033083;28;20093;-71
2022/04/19 12:27:06;;;;;;;3.88;2.13;;;16.80;45.40;;;;;;5033047;28;20045;-71
2022/04/19 12:29:35;;;;;;;6.70;2.17;;;16.60;45.70;;;;;;5032345;28;20046;-70
2022/04/19 12:32:02;;;;;;;4.43;2.00;;;16.70;45.60;;;;;;5031567;28;20442;-71
2022/04/19 12:34:38;;;;;;;3.75;2.55;;;16.70;44.70;;;;;;5032944;28;20081;-70
2022/04/19 12:37:10;;;;;;;3.35;2.15;;;16.70;44.80;;;;;;5031601;28;20049;-70
2022/04/19 12:39:35;;;;;;;4.07;2.42;;;16.80;44.60;;;;;;5031843;28;20091;-70
2022/04/19 12:42:07;;;;;;;3.38;1.85;;;16.70;44.80;;;;;;5031104;28;20502;-70
2022/04/19 12:44:36;;;;;;;3.42;1.60;;;16.80;45.00;;;;;;5032885;28;20116;-70
2022/04/19 12:47:14;;;;;;;3.22;1.98;;;16.70;44.20;;;;;;5031394;28;20561;-70
2022/04/19 12:49:45;;;;;;;3.42;1.88;;;16.80;44.50;;;;;;5032618;28;20406;-70
2022/04/19 12:52:12;;;;;;;4.55;2.25;;;16.70;44.40;;;;;;5032203;28;20047;-70
2022/04/19 12:54:40;;;;;;;3.65;2.33;;;16.70;44.70;;;;;;5031333;28;20037;-70
2022/04/19 12:57:13;;;;;;;4.88;1.90;;;16.70;45.20;;;;;;5032553;28;20043;-70
2022/04/19 12:59:39;;;;;;;3.65;2.35;;;16.90;45.20;;;;;;5032459;28;20087;-70
2022/04/19 13:02:04;;;;;;;4.03;2.33;;;16.80;44.40;;;;;;5032064;28;20041;-70
2022/04/19 13:04:30;;;;;;;3.08;2.33;;;16.70;45.00;;;;;;5030813;28;20049;-70
2022/04/19 13:12:26;;;;;;;3.90;3.17;;;16.80;45.20;;;;;;5032197;28;20041;-70
2022/04/19 13:14:54;;;;;;;4.00;2.65;;;17.00;45.40;;;;;;5031695;28;20411;-72
2022/04/19 13:17:21;;;;;;;5.28;2.67;;;17.20;45.00;;;;;;5030277;28;20041;-72
2022/04/19 13:19:47;;;;;;;6.68;3.17;;;17.20;45.20;;;;;;5031547;28;20037;-72
2022/04/19 13:22:13;;;;;;;5.50;2.97;;;17.40;45.20;;;;;;5031556;28;20510;-72
2022/04/19 13:24:40;;;;;;;3.00;2.47;;;17.50;44.00;;;;;;5031962;28;20084;-72
2022/04/19 13:27:10;;;;;;;4.63;3.13;;;17.30;44.20;;;;;;5030792;28;20045;-72
2022/04/19 13:29:38;;;;;;;4.72;2.90;;;17.40;44.30;;;;;;5031810;28;20614;-72